createdAt,value
2018-12-14T00:00:56.167Z,0.74
2018-12-14T00:03:23.556Z,0.71
2018-12-14T00:05:50.964Z,0.68
2018-12-14T00:08:18.356Z,0.67
2018-12-14T00:10:45.745Z,0.76
2018-12-14T00:13:13.144Z,0.76
2018-12-14T00:15:40.540Z,0.88
2018-12-14T00:18:07.958Z,0.83
2018-12-14T00:20:35.357Z,0.82
2018-12-14T00:23:02.741Z,0.80
2018-12-14T00:25:30.149Z,0.86
2018-12-14T00:27:57.550Z,0.83
2018-12-14T00:30:24.940Z,0.87
2018-12-14T00:32:52.342Z,0.93
2018-12-14T00:35:20.181Z,0.95
2018-12-14T00:37:47.576Z,0.98
2018-12-14T00:40:15.030Z,0.94
2018-12-14T00:42:42.436Z,0.94
2018-12-14T00:45:09.828Z,1.14
2018-12-14T00:47:37.236Z,1.14
2018-12-14T00:50:06.059Z,1.15
2018-12-14T00:52:33.544Z,0.99
2018-12-14T00:55:00.952Z,1.21
2018-12-14T00:57:28.344Z,1.27
2018-12-14T00:59:55.738Z,0.95
2018-12-14T01:02:29.162Z,0.96
2018-12-14T01:04:56.897Z,1.01
2018-12-14T01:07:24.289Z,0.88
2018-12-14T01:09:51.687Z,0.86
2018-12-14T01:12:19.188Z,0.88
2018-12-14T01:14:46.626Z,0.83
2018-12-14T01:17:14.089Z,0.78
2018-12-14T01:19:41.485Z,0.83
2018-12-14T01:22:08.942Z,0.80
2018-12-14T01:24:36.401Z,0.81
2018-12-14T01:27:03.793Z,0.76
2018-12-14T01:29:31.196Z,0.73
2018-12-14T01:31:58.605Z,0.81
2018-12-14T01:34:27.957Z,0.81
2018-12-14T01:36:55.324Z,0.73
2018-12-14T01:39:22.736Z,0.76
2018-12-14T01:41:50.132Z,0.76
2018-12-14T01:44:18.132Z,0.78
2018-12-14T01:46:45.524Z,0.66
2018-12-14T01:49:12.920Z,0.73
2018-12-14T01:51:40.365Z,0.71
2018-12-14T01:54:07.769Z,0.65
2018-12-14T01:56:35.162Z,0.69
2018-12-14T01:59:02.548Z,0.68
2018-12-14T02:01:29.956Z,0.72
2018-12-14T02:03:57.441Z,0.68
2018-12-14T02:06:24.884Z,0.76
2018-12-14T02:08:52.358Z,0.74
2018-12-14T02:11:19.749Z,0.65
2018-12-14T02:13:47.141Z,0.74
2018-12-14T02:16:14.555Z,0.74
2018-12-14T02:18:41.992Z,0.64
2018-12-14T02:21:09.390Z,0.65
2018-12-14T02:23:36.804Z,0.68
2018-12-14T02:26:04.205Z,0.60
2018-12-14T02:28:31.597Z,0.60
2018-12-14T02:30:59.004Z,0.66
2018-12-14T02:33:26.402Z,0.67
2018-12-14T02:35:53.788Z,0.62
2018-12-14T02:38:21.209Z,0.56
2018-12-14T02:40:48.653Z,0.58
2018-12-14T02:43:16.048Z,0.62
2018-12-14T02:45:43.456Z,0.61
2018-12-14T02:48:10.845Z,0.69
2018-12-14T02:50:38.257Z,0.75
2018-12-14T02:53:05.743Z,0.65
2018-12-14T02:55:33.137Z,0.62
2018-12-14T02:58:00.637Z,0.56
2018-12-14T03:00:28.037Z,0.59
2018-12-14T03:02:55.481Z,0.59
2018-12-14T03:05:22.934Z,0.58
2018-12-14T03:07:50.328Z,0.64
2018-12-14T03:10:17.774Z,0.60
2018-12-14T03:12:45.216Z,0.74
2018-12-14T03:15:12.731Z,0.65
2018-12-14T03:17:40.221Z,0.83
2018-12-14T03:20:08.328Z,0.76
2018-12-14T03:22:35.808Z,0.79
2018-12-14T03:25:03.616Z,0.77
2018-12-14T03:27:31.018Z,0.79
2018-12-14T03:29:58.421Z,0.68
2018-12-14T03:32:25.818Z,0.61
2018-12-14T03:34:53.300Z,0.49
2018-12-14T03:37:20.705Z,0.63
2018-12-14T03:39:48.106Z,0.67
2018-12-14T03:42:15.516Z,0.57
2018-12-14T03:44:42.953Z,0.65
2018-12-14T03:47:10.408Z,0.55
2018-12-14T03:49:37.878Z,0.67
2018-12-14T03:52:05.304Z,0.62
2018-12-14T03:54:32.711Z,0.59
2018-12-14T03:57:00.102Z,0.58
2018-12-14T03:59:27.488Z,0.71
2018-12-14T04:01:54.899Z,0.73
2018-12-14T04:04:22.388Z,0.57
2018-12-14T04:06:49.800Z,0.66
2018-12-14T04:09:17.193Z,0.67
2018-12-14T04:11:44.584Z,0.86
2018-12-14T04:14:11.997Z,0.85
2018-12-14T04:16:39.395Z,0.79
2018-12-14T04:19:06.797Z,0.70
2018-12-14T04:21:34.192Z,0.77
2018-12-14T04:24:01.594Z,0.75
2018-12-14T04:26:29.083Z,0.49
2018-12-14T04:28:56.533Z,0.52
2018-12-14T04:31:23.935Z,0.50
2018-12-14T04:33:51.335Z,0.61
2018-12-14T04:36:18.740Z,0.61
2018-12-14T04:38:46.126Z,0.53
2018-12-14T04:41:13.613Z,0.54
2018-12-14T04:43:40.999Z,0.57
2018-12-14T04:46:08.469Z,0.55
2018-12-14T04:48:35.958Z,0.40
2018-12-14T04:51:03.352Z,0.53
2018-12-14T04:53:30.764Z,0.60
2018-12-14T04:55:58.260Z,0.71
2018-12-14T04:58:25.732Z,0.81
2018-12-14T05:00:53.136Z,0.58
2018-12-14T05:03:20.576Z,0.56
2018-12-14T05:05:49.933Z,0.55
2018-12-14T05:08:17.321Z,0.59
2018-12-14T05:10:44.723Z,0.73
2018-12-14T05:13:12.170Z,0.81
2018-12-14T05:15:39.571Z,0.85
2018-12-14T05:18:09.423Z,0.77
2018-12-14T05:20:37.097Z,0.57
2018-12-14T05:23:04.489Z,0.74
2018-12-14T05:25:31.896Z,0.78
2018-12-14T05:27:59.288Z,0.54
2018-12-14T05:30:26.675Z,0.62
2018-12-14T05:32:54.072Z,0.68
2018-12-14T05:35:21.518Z,0.76
2018-12-14T05:37:48.930Z,0.68
2018-12-14T05:40:16.318Z,0.66
2018-12-14T05:42:43.717Z,0.69
2018-12-14T05:45:11.233Z,0.71
2018-12-14T05:47:38.674Z,0.68
2018-12-14T05:50:06.461Z,0.64
2018-12-14T05:52:33.860Z,0.60
2018-12-14T05:55:01.256Z,0.70
2018-12-14T05:57:28.754Z,0.75
2018-12-14T05:59:56.272Z,0.54
2018-12-14T06:02:23.712Z,0.48
2018-12-14T06:04:51.116Z,0.64
2018-12-14T06:07:18.503Z,0.66
2018-12-14T06:09:45.990Z,0.76
2018-12-14T06:12:13.536Z,0.76
2018-12-14T06:14:40.930Z,0.76
2018-12-14T06:17:08.335Z,0.77
2018-12-14T06:19:35.732Z,0.79
2018-12-14T06:22:03.172Z,0.61
2018-12-14T06:24:30.631Z,0.78
2018-12-14T06:26:58.024Z,0.80
2018-12-14T06:29:25.431Z,0.77
2018-12-14T06:31:52.909Z,0.79
2018-12-14T06:34:20.325Z,0.71
2018-12-14T06:36:47.728Z,0.67
2018-12-14T06:39:15.368Z,0.68
2018-12-14T06:41:43.102Z,0.51
2018-12-14T06:44:10.481Z,0.60
2018-12-14T06:46:37.913Z,0.71
2018-12-14T06:49:05.299Z,0.75
2018-12-14T06:51:32.692Z,0.58
2018-12-14T06:54:00.092Z,0.64
2018-12-14T06:56:27.477Z,0.53
2018-12-14T06:58:54.900Z,0.52
2018-12-14T07:01:22.302Z,0.69
2018-12-14T07:03:49.692Z,0.46
2018-12-14T07:06:17.243Z,0.64
2018-12-14T07:08:44.631Z,0.75
2018-12-14T07:11:12.084Z,0.59
2018-12-14T07:13:39.482Z,0.41
2018-12-14T07:16:07.050Z,0.39
2018-12-14T07:18:34.526Z,0.49
2018-12-14T07:21:01.912Z,0.41
2018-12-14T07:23:29.322Z,0.29
2018-12-14T07:25:56.711Z,0.18
2018-12-14T07:28:24.100Z,0.32
2018-12-14T07:30:51.504Z,0.51
2018-12-14T07:33:18.897Z,0.53
2018-12-14T07:35:46.300Z,0.56
2018-12-14T07:38:13.700Z,0.62
2018-12-14T07:40:41.090Z,0.50
2018-12-14T07:43:08.580Z,0.47
2018-12-14T07:45:35.976Z,0.51
2018-12-14T07:48:03.430Z,0.46
2018-12-14T07:50:30.821Z,0.63
2018-12-14T07:52:58.216Z,0.71
2018-12-14T07:55:29.075Z,0.55
2018-12-14T07:57:57.134Z,0.60
2018-12-14T08:00:24.584Z,0.66
2018-12-14T08:02:51.977Z,0.55
2018-12-14T08:05:19.364Z,0.57
2018-12-14T08:07:46.764Z,0.65
2018-12-14T08:10:14.156Z,0.60
2018-12-14T08:12:41.559Z,0.39
2018-12-14T08:15:11.517Z,0.57
2018-12-14T08:17:38.440Z,0.39
2018-12-14T08:20:06.236Z,0.41
2018-12-14T08:22:33.681Z,0.56
2018-12-14T08:25:01.125Z,0.55
2018-12-14T08:27:28.518Z,0.64
2018-12-14T08:29:55.904Z,0.76
2018-12-14T08:32:23.305Z,0.80
2018-12-14T08:34:51.371Z,0.77
2018-12-14T08:37:18.969Z,0.74
2018-12-14T08:39:46.463Z,0.81
2018-12-14T08:42:13.849Z,0.79
2018-12-14T08:44:41.256Z,0.71
2018-12-14T08:47:08.649Z,0.77
2018-12-14T08:49:36.037Z,0.77
2018-12-14T08:52:03.578Z,0.70
2018-12-14T08:54:31.021Z,0.71
2018-12-14T08:56:58.413Z,0.84
2018-12-14T08:59:25.819Z,0.87
2018-12-14T09:01:53.253Z,0.71
2018-12-14T09:04:20.646Z,0.92
2018-12-14T09:06:48.097Z,0.90
2018-12-14T09:09:15.550Z,0.82
2018-12-14T09:11:42.940Z,0.98
2018-12-14T09:14:10.332Z,0.99
2018-12-14T09:16:37.728Z,0.98
2018-12-14T09:19:05.132Z,0.88
2018-12-14T09:21:32.524Z,0.90
2018-12-14T09:23:59.921Z,0.84
2018-12-14T09:26:27.320Z,1.02
2018-12-14T09:28:54.877Z,0.85
2018-12-14T09:31:22.273Z,0.70
2018-12-14T09:33:49.664Z,0.85
2018-12-14T09:36:17.053Z,0.88
2018-12-14T09:38:44.473Z,0.74
2018-12-14T09:41:16.251Z,0.93
2018-12-14T09:43:41.317Z,0.91
2018-12-14T09:46:08.708Z,0.77
2018-12-14T09:48:36.099Z,0.75
2018-12-14T09:51:03.504Z,0.75
2018-12-14T09:53:30.898Z,0.64
2018-12-14T09:55:58.311Z,0.52
2018-12-14T09:58:25.814Z,0.78
2018-12-14T10:00:53.225Z,0.69
2018-12-14T10:03:20.621Z,0.72
2018-12-14T10:05:48.005Z,0.82
2018-12-14T10:08:15.653Z,0.94
2018-12-14T10:10:43.307Z,1.07
2018-12-14T10:13:10.945Z,0.86
2018-12-14T10:15:38.345Z,0.69
2018-12-14T10:18:05.782Z,0.72
2018-12-14T10:20:33.164Z,0.82
2018-12-14T10:23:00.556Z,0.61
2018-12-14T10:25:27.996Z,0.64
2018-12-14T10:27:55.402Z,0.81
2018-12-14T10:30:22.881Z,0.84
2018-12-14T10:32:50.288Z,0.77
2018-12-14T10:35:17.736Z,1.02
2018-12-14T10:37:45.132Z,0.82
2018-12-14T10:40:12.580Z,0.94
2018-12-14T10:42:39.968Z,0.86
2018-12-14T10:45:07.680Z,0.82
2018-12-14T10:47:35.209Z,0.99
2018-12-14T10:50:02.601Z,1.04
2018-12-14T10:52:30.048Z,1.05
2018-12-14T10:54:57.436Z,0.61
2018-12-14T10:57:24.825Z,0.59
2018-12-14T10:59:52.242Z,0.83
2018-12-14T11:02:19.705Z,0.97
2018-12-14T11:04:47.100Z,1.04
2018-12-14T11:07:14.501Z,1.19
2018-12-14T11:09:41.993Z,1.01
2018-12-14T11:12:09.432Z,0.76
2018-12-14T11:14:36.820Z,0.63
2018-12-14T11:17:04.220Z,0.70
2018-12-14T11:19:31.621Z,0.57
2018-12-14T11:21:59.020Z,0.88
2018-12-14T11:24:26.408Z,1.04
2018-12-14T11:26:53.881Z,1.06
2018-12-14T11:29:21.293Z,1.03
2018-12-14T11:31:48.680Z,1.17
2018-12-14T11:34:16.090Z,1.03
2018-12-14T11:36:43.471Z,0.67
2018-12-14T11:39:10.866Z,0.68
2018-12-14T11:41:38.309Z,0.74
2018-12-14T11:44:05.697Z,1.06
2018-12-14T11:46:33.204Z,1.16
2018-12-14T11:49:00.593Z,1.15
2018-12-14T11:51:27.985Z,1.09
2018-12-14T11:53:55.384Z,1.10
2018-12-14T11:56:24.744Z,0.93
2018-12-14T11:58:53.003Z,0.67
2018-12-14T12:01:23.488Z,0.68
2018-12-14T12:03:50.879Z,0.69
2018-12-14T12:06:18.301Z,0.81
2018-12-14T12:08:45.698Z,0.99
2018-12-14T12:11:13.088Z,1.12
2018-12-14T12:13:40.541Z,0.98
2018-12-14T12:16:07.923Z,0.88
2018-12-14T12:18:35.522Z,1.02
2018-12-14T12:21:02.956Z,0.90
2018-12-14T12:23:30.352Z,0.83
2018-12-14T12:25:57.804Z,0.65
2018-12-14T12:28:25.202Z,0.62
2018-12-14T12:30:52.608Z,0.70
2018-12-14T12:33:20.005Z,0.74
2018-12-14T12:35:47.480Z,0.78
2018-12-14T12:38:14.892Z,0.56
2018-12-14T12:40:42.280Z,0.71
2018-12-14T12:43:09.764Z,0.86
2018-12-14T12:45:37.172Z,0.73
2018-12-14T12:48:04.576Z,0.78
2018-12-14T12:50:31.982Z,0.74
2018-12-14T12:52:59.372Z,1.01
2018-12-14T12:55:26.764Z,0.88
2018-12-14T12:57:54.180Z,0.94
2018-12-14T13:00:21.562Z,0.90
2018-12-14T13:02:48.960Z,0.98
2018-12-14T13:05:16.357Z,0.96
2018-12-14T13:07:43.761Z,1.04
2018-12-14T13:10:11.165Z,1.03
2018-12-14T13:12:38.562Z,0.94
2018-12-14T13:15:06.658Z,1.00
2018-12-14T13:17:34.061Z,1.13
2018-12-14T13:20:01.451Z,1.15
2018-12-14T13:22:28.856Z,1.20
2018-12-14T13:24:56.254Z,1.01
2018-12-14T13:27:23.641Z,0.98
2018-12-14T13:29:51.044Z,0.98
2018-12-14T13:32:18.437Z,1.13
2018-12-14T13:34:45.837Z,1.14
2018-12-14T13:37:13.234Z,1.06
2018-12-14T13:39:40.695Z,1.04
2018-12-14T13:42:08.177Z,0.94
2018-12-14T13:44:35.821Z,0.95
2018-12-14T13:47:03.297Z,1.01
2018-12-14T13:49:30.802Z,0.80
2018-12-14T13:51:58.338Z,0.86
2018-12-14T13:54:25.720Z,0.77
2018-12-14T13:56:53.127Z,0.91
2018-12-14T13:59:20.540Z,0.86
2018-12-14T14:01:47.934Z,0.98
2018-12-14T14:04:15.332Z,0.92
2018-12-14T14:06:42.728Z,0.96
2018-12-14T14:09:10.124Z,1.12
2018-12-14T14:11:37.550Z,0.97
2018-12-14T14:14:05.056Z,1.01
2018-12-14T14:16:32.465Z,0.75
2018-12-14T14:18:59.896Z,0.87
2018-12-14T14:21:27.291Z,0.74
2018-12-14T14:23:54.697Z,0.86
2018-12-14T14:26:22.102Z,0.64
2018-12-14T14:28:49.576Z,0.63
2018-12-14T14:31:16.981Z,0.54
2018-12-14T14:33:44.676Z,0.57
2018-12-14T14:36:12.228Z,0.43
2018-12-14T14:38:39.633Z,0.24
2018-12-14T14:41:07.024Z,0.29
2018-12-14T14:43:34.432Z,0.37
2018-12-14T14:46:01.822Z,0.39
2018-12-14T14:48:29.235Z,0.33
2018-12-14T14:50:56.629Z,0.31
2018-12-14T14:53:24.047Z,0.55
2018-12-14T14:55:51.476Z,0.41
2018-12-14T14:58:18.869Z,0.41
2018-12-14T15:00:46.330Z,0.43
2018-12-14T15:03:13.817Z,0.40
2018-12-14T15:05:41.215Z,0.54
2018-12-14T15:08:08.612Z,0.60
2018-12-14T15:10:36.064Z,0.50
2018-12-14T15:13:03.521Z,0.42
2018-12-14T15:15:30.924Z,0.31
2018-12-14T15:17:58.317Z,0.24
2018-12-14T15:20:25.761Z,0.17
2018-12-14T15:22:53.158Z,0.32
2018-12-14T15:25:20.570Z,0.37
2018-12-14T15:27:47.956Z,0.56
2018-12-14T15:30:15.352Z,0.66
2018-12-14T15:32:42.762Z,0.69
2018-12-14T15:35:10.160Z,0.57
2018-12-14T15:37:37.545Z,0.68
2018-12-14T15:40:07.452Z,0.63
2018-12-14T15:42:34.896Z,0.69
2018-12-14T15:45:02.388Z,0.59
2018-12-14T15:47:29.920Z,0.59
2018-12-14T15:49:57.313Z,0.71
2018-12-14T15:52:24.772Z,0.57
2018-12-14T15:54:52.209Z,0.60
2018-12-14T15:57:20.628Z,0.56
2018-12-14T15:59:48.026Z,0.56
2018-12-14T16:02:15.512Z,0.56
2018-12-14T16:04:42.964Z,0.70
2018-12-14T16:07:10.357Z,0.55
2018-12-14T16:09:37.797Z,0.58
2018-12-14T16:12:05.259Z,0.71
2018-12-14T16:14:34.470Z,0.58
2018-12-14T16:17:02.042Z,0.62
2018-12-14T16:19:29.511Z,0.54
2018-12-14T16:21:56.997Z,0.47
2018-12-14T16:24:24.405Z,0.57
2018-12-14T16:26:51.874Z,0.46
2018-12-14T16:29:19.281Z,0.48
2018-12-14T16:31:46.664Z,0.56
2018-12-14T16:34:14.060Z,0.44
2018-12-14T16:36:41.516Z,0.40
2018-12-14T16:39:08.974Z,0.64
2018-12-14T16:41:36.443Z,0.48
2018-12-14T16:44:03.960Z,0.52
2018-12-14T16:46:31.453Z,0.53
2018-12-14T16:48:58.856Z,0.55
2018-12-14T16:51:26.252Z,0.55
2018-12-14T16:56:41.949Z,0.57
2018-12-14T16:59:09.365Z,0.63
2018-12-14T17:01:36.812Z,0.51
2018-12-14T17:04:04.253Z,0.45
2018-12-14T17:06:31.654Z,0.57
2018-12-14T17:08:59.088Z,0.61
2018-12-14T17:11:26.500Z,0.55
2018-12-14T17:13:53.941Z,0.56
2018-12-14T17:16:21.378Z,0.56
2018-12-14T17:18:48.776Z,0.54
2018-12-14T17:21:16.316Z,0.47
2018-12-14T17:23:43.821Z,0.51
2018-12-14T17:26:12.657Z,0.46
2018-12-14T17:28:40.211Z,0.61
2018-12-14T17:31:07.624Z,0.41
2018-12-14T17:33:36.219Z,0.51
2018-12-14T17:36:03.844Z,0.52
2018-12-14T17:38:31.245Z,0.62
2018-12-14T17:40:58.637Z,0.45
2018-12-14T17:43:26.112Z,0.34
2018-12-14T17:45:53.496Z,0.30
2018-12-14T17:48:20.928Z,0.46
2018-12-14T17:50:48.382Z,0.39
2018-12-14T17:53:15.772Z,0.20
2018-12-14T17:55:43.180Z,0.47
2018-12-14T17:58:10.568Z,0.28
2018-12-14T18:00:38.004Z,0.48
2018-12-14T18:03:05.455Z,0.49
2018-12-14T18:05:32.857Z,0.51
2018-12-14T18:08:00.383Z,0.45
2018-12-14T18:10:27.770Z,0.55
2018-12-14T18:12:55.155Z,0.54
2018-12-14T18:15:22.554Z,0.53
2018-12-14T18:17:49.946Z,0.52
2018-12-14T18:20:17.348Z,0.42
2018-12-14T18:22:44.987Z,0.52
2018-12-14T18:25:12.750Z,0.45
2018-12-14T18:27:40.387Z,0.45
2018-12-14T18:30:07.876Z,0.40
2018-12-14T18:32:35.268Z,0.49
2018-12-14T18:35:02.721Z,0.43
2018-12-14T18:37:30.112Z,0.17
2018-12-14T18:39:57.513Z,0.31
2018-12-14T18:42:24.932Z,0.46
2018-12-14T18:44:52.323Z,0.36
2018-12-14T18:47:19.732Z,0.40
2018-12-14T18:49:47.116Z,0.46
2018-12-14T18:52:14.512Z,0.51
2018-12-14T18:54:41.908Z,0.52
2018-12-14T18:57:09.344Z,0.20
2018-12-14T18:59:36.750Z,0.20
2018-12-14T19:02:04.236Z,0.16
2018-12-14T19:04:31.632Z,0.33
2018-12-14T19:06:59.080Z,0.21
2018-12-14T19:09:26.517Z,0.31
2018-12-14T19:11:54.102Z,0.44
2018-12-14T19:14:21.696Z,0.37
2018-12-14T19:16:49.105Z,0.33
2018-12-14T19:19:16.518Z,0.11
2018-12-14T19:21:43.913Z,-0.02
2018-12-14T19:24:13.141Z,0.17
2018-12-14T19:26:40.549Z,0.37
2018-12-14T19:29:07.947Z,0.35
2018-12-14T19:31:35.403Z,0.21
2018-12-14T19:34:02.799Z,0.32
2018-12-14T19:36:30.220Z,0.11
2018-12-14T19:38:57.868Z,0.22
2018-12-14T19:41:25.259Z,0.23
2018-12-14T19:43:52.680Z,0.32
2018-12-14T19:46:20.088Z,0.16
2018-12-14T19:48:47.513Z,0.09
2018-12-14T19:51:14.923Z,0.22
2018-12-14T19:53:43.065Z,0.23
2018-12-14T19:56:10.468Z,0.28
2018-12-14T19:58:37.876Z,0.17
2018-12-14T20:01:05.266Z,0.42
2018-12-14T20:03:32.674Z,0.23
2018-12-14T20:06:00.249Z,0.40
2018-12-14T20:08:27.652Z,0.50
2018-12-14T20:10:55.150Z,0.38
2018-12-14T20:13:22.547Z,0.45
2018-12-14T20:15:49.953Z,0.30
2018-12-14T20:18:17.341Z,0.46
2018-12-14T20:20:44.728Z,0.37
2018-12-14T20:23:12.138Z,0.46
2018-12-14T20:25:39.530Z,0.40
2018-12-14T20:28:06.922Z,0.44
2018-12-14T20:30:34.344Z,0.37
2018-12-14T20:33:01.732Z,0.37
2018-12-14T20:35:29.177Z,0.38
2018-12-14T20:37:56.641Z,0.37
2018-12-14T20:40:24.085Z,0.35
2018-12-14T20:42:51.508Z,0.48
2018-12-14T20:45:18.952Z,0.30
2018-12-14T20:47:46.348Z,0.39
2018-12-14T20:50:13.849Z,0.28
2018-12-14T20:52:41.245Z,0.48
2018-12-14T20:55:08.712Z,0.28
2018-12-14T20:57:36.104Z,0.07
2018-12-14T21:00:05.204Z,0.24
2018-12-14T21:02:32.615Z,0.34
2018-12-14T21:05:00.007Z,0.24
2018-12-14T21:07:27.405Z,0.00
2018-12-14T21:09:54.808Z,-0.04
2018-12-14T21:12:22.297Z,0.11
2018-12-14T21:14:50.989Z,0.15
2018-12-14T21:17:18.584Z,0.18
2018-12-14T21:19:45.969Z,0.11
2018-12-14T21:22:13.379Z,-0.12
2018-12-14T21:24:40.890Z,-0.06
2018-12-14T21:27:08.367Z,-0.09
2018-12-14T21:29:35.825Z,-0.06
2018-12-14T21:32:03.273Z,-0.04
2018-12-14T21:34:30.735Z,-0.06
2018-12-14T21:36:58.141Z,-0.01
2018-12-14T21:39:25.532Z,-0.15
2018-12-14T21:41:52.952Z,0.07
2018-12-14T21:44:20.448Z,-0.03
2018-12-14T21:46:47.844Z,-0.03
2018-12-14T21:49:15.252Z,0.12
2018-12-14T21:51:42.692Z,0.04
2018-12-14T21:54:10.117Z,0.05
2018-12-14T21:56:37.515Z,0.16
2018-12-14T21:59:04.970Z,-0.08
2018-12-14T22:01:32.472Z,-0.07
2018-12-14T22:03:59.924Z,-0.09
2018-12-14T22:06:27.339Z,-0.17
2018-12-14T22:08:54.751Z,-0.11
2018-12-14T22:11:22.154Z,-0.05
2018-12-14T22:13:49.565Z,0.08
2018-12-14T22:16:16.989Z,-0.11
2018-12-14T22:18:44.429Z,-0.13
2018-12-14T22:21:11.844Z,-0.08
2018-12-14T22:23:39.236Z,-0.11
2018-12-14T22:26:06.650Z,-0.11
2018-12-14T22:28:34.049Z,-0.22
2018-12-14T22:31:01.457Z,-0.31
2018-12-14T22:33:28.872Z,-0.27
2018-12-14T22:35:56.944Z,-0.22
2018-12-14T22:38:24.494Z,-0.21
2018-12-14T22:40:51.900Z,-0.19
2018-12-14T22:43:19.292Z,0.07
2018-12-14T22:45:46.760Z,0.19
2018-12-14T22:48:14.164Z,-0.02
2018-12-14T22:50:41.568Z,-0.13
2018-12-14T22:53:08.980Z,-0.14
2018-12-14T22:55:36.376Z,0.10
2018-12-14T22:58:03.837Z,0.23
2018-12-14T23:00:31.372Z,0.24
2018-12-14T23:02:58.757Z,0.34
2018-12-14T23:05:26.171Z,0.36
2018-12-14T23:07:53.565Z,0.24
2018-12-14T23:10:20.977Z,0.15
2018-12-14T23:12:48.379Z,-0.05
2018-12-14T23:15:15.780Z,-0.12
2018-12-14T23:17:43.186Z,0.05
2018-12-14T23:20:10.570Z,0.11
2018-12-14T23:22:37.978Z,0.10
2018-12-14T23:25:05.425Z,0.19
2018-12-14T23:27:32.909Z,-0.10
2018-12-14T23:30:00.318Z,-0.11
2018-12-14T23:32:27.705Z,-0.04
2018-12-14T23:34:55.117Z,0.02
2018-12-14T23:37:22.512Z,-0.11
2018-12-14T23:39:49.903Z,-0.20
2018-12-14T23:42:17.356Z,-0.04
2018-12-14T23:44:44.793Z,0.07
2018-12-14T23:47:12.196Z,0.06
2018-12-14T23:49:39.596Z,0.10
2018-12-14T23:52:06.988Z,0.28
2018-12-14T23:54:34.414Z,0.20
2018-12-14T23:57:01.895Z,0.23
2018-12-14T23:59:29.385Z,0.28
